Time,TemperatureF,DewpointF,PressureIn,WindDirection,WindDirectionDegrees,WindSpeedMPH,WindSpeedGustMPH,Humidity,HourlyPrecipIn,Conditions,Clouds,dailyrainin,SolarRadiationWatts/m^2,SoftwareType,DateUTC
2013-07-05 00:01:00,71.9,70.7,30.06,West,281,0.0,0.1,96,0.00,,,0.06,0.0,WeatherDisplay:10.37,2013-07-05 04:01:00,
2013-07-05 00:02:00,71.9,70.7,30.06,West,281,1.2,0.0,96,0.00,RA,,0.00,0.0,WeatherDisplay:10.37,2013-07-05 04:02:00,
2013-07-05 00:03:00,71.9,70.7,30.06,West,281,0.0,0.0,96,0.00,RA,,0.00,0.0,WeatherDisplay:10.37,2013-07-05 04:03:00,
2013-07-05 00:04:00,71.9,70.7,30.06,West,281,0.0,0.0,96,0.00,RA,,0.00,0.0,WeatherDisplay:10.37,2013-07-05 04:04:00,
2013-07-05 00:09:00,72.0,70.8,30.06,West,281,0.0,0.0,96,0.01,RA,,0.01,0.0,WeatherDisplay:10.37,2013-07-05 04:09:00,
2013-07-05 00:14:00,71.9,70.7,30.06,West,281,0.0,0.0,96,0.01,RA,,0.01,0.0,WeatherDisplay:10.37,2013-07-05 04:14:00,
2013-07-05 00:19:00,72.0,70.8,30.06,West,281,0.0,0.0,96,0.01,,,0.01,0.0,WeatherDisplay:10.37,2013-07-05 04:19:00,
2013-07-05 00:24:00,72.0,70.8,30.05,West,281,1.0,1.0,96,0.01,,,0.01,0.0,WeatherDisplay:10.37,2013-07-05 04:24:00,
2013-07-05 00:29:00,72.0,70.8,30.05,West,281,1.2,0.0,96,0.01,,,0.01,0.0,WeatherDisplay:10.37,2013-07-05 04:29:00,
2013-07-05 00:34:00,72.1,70.9,30.05,West,281,1.0,0.0,96,0.01,,,0.01,0.0,WeatherDisplay:10.37,2013-07-05 04:34:00,
2013-07-05 00:39:00,72.2,71.0,30.06,West,281,1.2,1.2,96,0.01,,,0.01,0.0,WeatherDisplay:10.37,2013-07-05 04:39:00,
2013-07-05 00:44:00,72.2,71.0,30.06,West,281,1.2,1.2,96,0.01,,,0.01,0.0,WeatherDisplay:10.37,2013-07-05 04:44:00,
2013-07-05 00:49:00,72.2,71.0,30.06,West,281,2.0,2.0,96,0.01,,,0.01,0.0,WeatherDisplay:10.37,2013-07-05 04:49:00,
2013-07-05 00:54:00,72.3,71.4,30.06,WNW,286,3.5,3.5,97,0.01,,,0.01,0.0,WeatherDisplay:10.37,2013-07-05 04:54:00,
2013-07-05 00:59:00,72.4,71.2,30.06,WNW,286,4.6,4.6,96,0.02,RA,,0.02,0.0,WeatherDisplay:10.37,2013-07-05 04:59:00,
2013-07-05 01:04:00,72.5,71.3,30.06,South,180,3.5,3.5,96,0.02,RA,,0.02,0.0,WeatherDisplay:10.37,2013-07-05 05:04:00,
2013-07-05 01:09:00,72.5,71.3,30.06,West,275,4.0,4.0,96,0.01,,,0.02,0.0,WeatherDisplay:10.37,2013-07-05 05:09:00,
2013-07-05 01:14:00,72.4,70.9,30.06,West,261,3.5,3.5,95,0.01,,,0.02,0.0,WeatherDisplay:10.37,2013-07-05 05:14:00,
2013-07-05 01:19:00,72.3,70.8,30.06,WSW,251,4.0,4.0,95,0.01,,,0.02,0.0,WeatherDisplay:10.37,2013-07-05 05:19:00,
2013-07-05 01:24:00,72.3,70.8,30.06,WSW,248,3.5,3.5,95,0.01,,,0.02,0.0,WeatherDisplay:10.37,2013-07-05 05:24:00,
2013-07-05 01:29:00,72.3,70.5,30.06,WSW,252,2.3,2.3,94,0.01,,,0.02,0.0,WeatherDisplay:10.37,2013-07-05 05:29:00,
2013-07-05 01:34:00,72.2,70.4,30.06,WSW,253,3.5,3.5,94,0.01,,,0.02,0.0,WeatherDisplay:10.37,2013-07-05 05:34:00,
2013-07-05 01:39:00,72.2,70.4,30.06,WSW,253,3.5,3.5,94,0.01,,,0.02,0.0,WeatherDisplay:10.37,2013-07-05 05:39:00,
2013-07-05 01:44:00,72.1,70.3,30.06,WSW,246,3.5,3.5,94,0.01,,,0.02,0.0,WeatherDisplay:10.37,2013-07-05 05:44:00,
2013-07-05 01:49:00,72.1,70.3,30.06,WSW,254,3.5,3.5,94,0.01,,,0.02,0.0,WeatherDisplay:10.37,2013-07-05 05:49:00,
2013-07-05 01:54:00,72.0,69.9,30.06,West,263,3.5,3.5,93,0.01,,,0.02,0.0,WeatherDisplay:10.37,2013-07-05 05:54:00,
2013-07-05 01:59:00,71.9,69.8,30.06,West,263,3.5,3.5,93,0.00,,,0.02,0.0,WeatherDisplay:10.37,2013-07-05 05:59:00,
2013-07-05 02:04:00,71.9,70.1,30.06,West,279,3.5,3.5,94,0.00,,,0.02,0.0,WeatherDisplay:10.37,2013-07-05 06:04:00,
2013-07-05 02:09:00,71.8,70.0,30.06,West,279,3.5,3.5,94,0.00,,,0.02,0.0,WeatherDisplay:10.37,2013-07-05 06:09:00,
2013-07-05 02:14:00,71.8,70.0,30.06,West,279,3.5,3.5,94,0.00,,,0.02,0.0,WeatherDisplay:10.37,2013-07-05 06:14:00,
2013-07-05 02:19:00,71.8,70.0,30.06,West,279,3.5,3.5,94,0.00,,,0.02,0.0,WeatherDisplay:10.37,2013-07-05 06:19:00,
2013-07-05 02:24:00,71.7,69.9,30.06,West,271,3.5,3.5,94,0.00,,,0.02,0.0,WeatherDisplay:10.37,2013-07-05 06:24:00,
2013-07-05 02:29:00,71.7,69.9,30.06,West,271,3.5,3.5,94,0.00,,,0.02,0.0,WeatherDisplay:10.37,2013-07-05 06:29:00,
2013-07-05 02:34:00,71.7,69.9,30.06,West,271,2.3,2.3,94,0.00,,,0.02,0.0,WeatherDisplay:10.37,2013-07-05 06:34:00,
2013-07-05 02:39:00,71.6,69.8,30.05,West,271,1.2,1.2,94,0.00,,,0.02,0.0,WeatherDisplay:10.37,2013-07-05 06:39:00,
2013-07-05 02:44:00,71.6,69.8,30.05,West,271,2.3,2.3,94,0.00,,,0.02,0.0,WeatherDisplay:10.37,2013-07-05 06:44:00,
2013-07-05 02:49:00,71.5,69.7,30.06,West,271,2.3,2.3,94,0.00,,,0.02,0.0,WeatherDisplay:10.37,2013-07-05 06:49:00,
2013-07-05 02:54:00,71.5,69.7,30.06,West,271,2.3,2.3,94,0.00,,,0.02,0.0,WeatherDisplay:10.37,2013-07-05 06:54:00,
2013-07-05 02:59:00,71.4,69.6,30.06,West,271,3.5,3.5,94,0.00,,,0.02,0.0,WeatherDisplay:10.37,2013-07-05 06:59:00,
2013-07-05 03:04:00,71.3,69.5,30.06,West,271,3.5,3.5,94,0.00,,,0.02,0.0,WeatherDisplay:10.37,2013-07-05 07:04:00,
2013-07-05 03:09:00,71.3,69.5,30.06,West,271,2.3,2.3,94,0.00,,,0.02,0.0,WeatherDisplay:10.37,2013-07-05 07:09:00,
2013-07-05 03:14:00,71.4,69.6,30.06,West,271,3.5,3.5,94,0.00,,,0.02,0.0,WeatherDisplay:10.37,2013-07-05 07:14:00,
2013-07-05 03:19:00,71.4,69.6,30.05,WSW,250,5.0,5.0,94,0.00,,,0.02,0.0,WeatherDisplay:10.37,2013-07-05 07:19:00,
2013-07-05 03:24:00,71.5,69.7,30.05,WSW,256,7.0,7.0,94,0.00,,,0.02,0.0,WeatherDisplay:10.37,2013-07-05 07:24:00,
2013-07-05 03:29:00,71.5,69.7,30.05,WSW,256,3.5,3.5,94,0.00,,,0.02,0.0,WeatherDisplay:10.37,2013-07-05 07:29:00,
2013-07-05 03:34:00,71.5,69.4,30.05,WSW,256,2.3,2.3,93,0.00,,,0.02,0.0,WeatherDisplay:10.37,2013-07-05 07:34:00,
2013-07-05 03:39:00,71.5,69.4,30.05,WSW,250,3.5,3.5,93,0.00,,,0.02,0.0,WeatherDisplay:10.37,2013-07-05 07:39:00,
2013-07-05 03:44:00,71.5,69.4,30.05,WSW,250,2.3,2.3,93,0.00,,,0.02,0.0,WeatherDisplay:10.37,2013-07-05 07:44:00,
2013-07-05 03:49:00,71.4,69.3,30.05,WSW,251,3.5,3.5,93,0.00,,,0.02,0.0,WeatherDisplay:10.37,2013-07-05 07:49:00,
2013-07-05 03:54:00,71.4,69.3,30.06,WSW,252,3.5,3.5,93,0.00,,,0.02,0.0,WeatherDisplay:10.37,2013-07-05 07:54:00,
2013-07-05 03:59:00,71.4,69.3,30.05,WSW,252,2.3,2.3,93,0.00,,,0.02,0.0,WeatherDisplay:10.37,2013-07-05 07:59:00,
2013-07-05 04:04:00,71.4,69.3,30.05,SW,234,3.5,3.5,93,0.00,,,0.02,0.0,WeatherDisplay:10.37,2013-07-05 08:04:00,
2013-07-05 04:09:00,71.3,69.2,30.05,West,266,3.5,3.5,93,0.00,,,0.02,0.0,WeatherDisplay:10.37,2013-07-05 08:09:00,
2013-07-05 04:14:00,71.3,69.2,30.06,West,266,3.5,3.5,93,0.00,,,0.02,0.0,WeatherDisplay:10.37,2013-07-05 08:14:00,
2013-07-05 04:19:00,71.3,68.9,30.06,West,266,3.5,3.5,92,0.00,,,0.02,0.0,WeatherDisplay:10.37,2013-07-05 08:19:00,
2013-07-05 04:24:00,71.2,68.8,30.06,WSW,253,3.5,3.5,92,0.00,,,0.02,0.0,WeatherDisplay:10.37,2013-07-05 08:24:00,
2013-07-05 04:29:00,71.2,68.8,30.06,WSW,249,3.5,3.5,92,0.00,,,0.02,0.0,WeatherDisplay:10.37,2013-07-05 08:29:00,
2013-07-05 04:34:00,71.1,68.7,30.06,WSW,258,4.0,4.0,92,0.00,,,0.02,0.0,WeatherDisplay:10.37,2013-07-05 08:34:00,
2013-07-05 04:39:00,71.0,68.6,30.06,West,271,3.5,3.5,92,0.00,,,0.02,0.0,WeatherDisplay:10.37,2013-07-05 08:39:00,
2013-07-05 04:44:00,70.9,68.5,30.06,West,271,3.5,3.5,92,0.00,,,0.02,0.0,WeatherDisplay:10.37,2013-07-05 08:44:00,
2013-07-05 04:49:00,70.9,68.5,30.06,WNW,287,3.5,3.5,92,0.00,,,0.02,0.0,WeatherDisplay:10.37,2013-07-05 08:49:00,
2013-07-05 04:54:00,70.8,68.4,30.06,WNW,286,3.5,3.5,92,0.00,,,0.02,0.0,WeatherDisplay:10.37,2013-07-05 08:54:00,
2013-07-05 04:59:00,70.7,68.3,30.06,WNW,286,3.5,3.5,92,0.00,,,0.02,0.0,WeatherDisplay:10.37,2013-07-05 08:59:00,
2013-07-05 05:04:00,70.8,68.4,30.06,West,280,4.0,4.0,92,0.00,CLR,,0.02,0.0,WeatherDisplay:10.37,2013-07-05 09:04:00,
2013-07-05 05:09:00,70.8,68.7,30.07,West,280,2.3,2.3,93,0.00,CLR,,0.02,0.0,WeatherDisplay:10.37,2013-07-05 09:09:00,
2013-07-05 05:14:00,70.8,68.7,30.07,West,280,3.5,3.5,93,0.00,CLR,,0.02,0.0,WeatherDisplay:10.37,2013-07-05 09:14:00,
2013-07-05 05:19:00,71.0,68.9,30.07,West,266,3.5,3.5,93,0.00,CLR,,0.02,5.0,WeatherDisplay:10.37,2013-07-05 09:19:00,
2013-07-05 05:24:00,71.2,68.8,30.07,West,270,12.0,12.0,92,0.00,CLR,,0.02,7.0,WeatherDisplay:10.37,2013-07-05 09:24:00,
2013-07-05 05:29:00,71.3,68.9,30.07,West,267,3.5,3.5,92,0.00,CLR,,0.02,9.0,WeatherDisplay:10.37,2013-07-05 09:29:00,
2013-07-05 05:34:00,71.4,69.0,30.07,West,267,2.3,2.3,92,0.00,CLR,,0.02,11.0,WeatherDisplay:10.37,2013-07-05 09:34:00,
2013-07-05 05:39:00,71.4,69.0,30.07,West,267,0.0,0.0,92,0.00,CLR,,0.02,16.0,WeatherDisplay:10.37,2013-07-05 09:39:00,
2013-07-05 05:44:00,71.3,68.9,30.07,West,269,3.5,3.5,92,0.00,CLR,,0.02,16.0,WeatherDisplay:10.37,2013-07-05 09:44:00,
2013-07-05 05:49:00,71.4,69.0,30.07,West,270,2.3,2.3,92,0.00,CLR,,0.02,21.0,WeatherDisplay:10.37,2013-07-05 09:49:00,
2013-07-05 05:54:00,71.4,69.0,30.07,West,275,3.5,3.5,92,0.00,CLR,,0.02,28.0,WeatherDisplay:10.37,2013-07-05 09:54:00,
2013-07-05 05:59:00,71.4,69.0,30.07,West,275,3.5,3.5,92,0.00,CLR,,0.02,35.0,WeatherDisplay:10.37,2013-07-05 09:59:00,
2013-07-05 06:05:00,71.4,69.0,30.07,West,275,2.3,2.3,92,0.00,CLR,,0.02,39.0,WeatherDisplay:10.37,2013-07-05 10:05:00,
2013-07-05 06:10:00,71.5,69.4,30.07,West,275,4.0,4.0,93,0.00,CLR,,0.02,32.0,WeatherDisplay:10.37,2013-07-05 10:10:00,
2013-07-05 06:15:00,71.5,69.4,30.07,West,275,3.5,3.5,93,0.00,CLR,,0.02,32.0,WeatherDisplay:10.37,2013-07-05 10:15:00,
2013-07-05 06:20:00,71.7,69.3,30.07,West,263,4.0,4.0,92,0.00,CLR,,0.02,35.0,WeatherDisplay:10.37,2013-07-05 10:20:00,
2013-07-05 06:25:00,71.8,69.3,30.07,West,270,3.5,3.5,92,0.00,CLR,,0.02,37.0,WeatherDisplay:10.37,2013-07-05 10:25:00,
2013-07-05 06:31:00,72.1,69.6,30.07,WNW,282,5.8,5.8,92,0.00,CLR,,0.02,39.0,WeatherDisplay:10.37,2013-07-05 10:31:00,
2013-07-05 06:36:00,72.3,69.8,30.07,West,273,3.5,3.5,92,0.00,CLR,,0.02,40.0,WeatherDisplay:10.37,2013-07-05 10:36:00,
2013-07-05 06:41:00,72.4,69.9,30.07,West,277,5.0,5.0,92,0.00,CLR,,0.02,44.0,WeatherDisplay:10.37,2013-07-05 10:41:00,
2013-07-05 06:46:00,72.6,69.8,30.07,West,271,5.8,5.8,91,0.00,CLR,,0.02,46.0,WeatherDisplay:10.37,2013-07-05 10:46:00,
2013-07-05 06:51:00,72.9,70.1,30.07,SW,220,3.5,3.5,91,0.00,CLR,,0.02,51.0,WeatherDisplay:10.37,2013-07-05 10:51:00,
2013-07-05 06:56:00,73.1,70.3,30.07,West,273,4.6,4.6,91,0.00,CLR,,0.02,51.0,WeatherDisplay:10.37,2013-07-05 10:56:00,
2013-07-05 07:01:00,73.3,70.5,30.07,West,273,4.6,4.6,91,0.00,CLR,,0.02,51.0,WeatherDisplay:10.37,2013-07-05 11:01:00,
2013-07-05 07:06:00,73.6,70.5,30.07,West,279,9.2,9.2,90,0.00,OVC,,0.02,53.0,WeatherDisplay:10.37,2013-07-05 11:06:00,
2013-07-05 07:11:00,73.7,70.6,30.07,West,272,11.5,11.5,90,0.00,OVC,,0.02,54.0,WeatherDisplay:10.37,2013-07-05 11:11:00,
2013-07-05 07:16:00,73.9,70.8,30.07,WNW,287,5.8,5.8,90,0.00,OVC,,0.02,58.0,WeatherDisplay:10.37,2013-07-05 11:16:00,
2013-07-05 07:21:00,74.1,70.6,30.07,West,259,10.4,10.4,89,0.00,OVC,,0.02,63.0,WeatherDisplay:10.37,2013-07-05 11:21:00,
2013-07-05 07:26:00,74.3,70.8,30.07,West,269,10.0,10.0,89,0.00,OVC,,0.03,95.0,WeatherDisplay:10.37,2013-07-05 11:26:00,
2013-07-05 07:31:00,74.4,70.9,30.07,West,269,4.6,4.6,89,0.01,RA,,0.03,67.0,WeatherDisplay:10.37,2013-07-05 11:31:00,
2013-07-05 07:36:00,74.6,70.8,30.07,WSW,254,5.8,5.8,88,0.01,RA,,0.03,76.0,WeatherDisplay:10.37,2013-07-05 11:36:00,
2013-07-05 07:41:00,74.7,70.9,30.07,West,262,10.0,10.0,88,0.01,OVC,,0.03,76.0,WeatherDisplay:10.37,2013-07-05 11:41:00,
2013-07-05 07:46:00,74.8,71.0,30.07,West,263,6.0,6.0,88,0.01,OVC,,0.03,84.0,WeatherDisplay:10.37,2013-07-05 11:46:00,
2013-07-05 07:52:00,75.0,71.2,30.07,West,269,11.5,11.5,88,0.01,OVC,,0.03,97.0,WeatherDisplay:10.37,2013-07-05 11:52:00,
2013-07-05 07:57:00,75.2,71.4,30.07,West,269,9.2,9.2,88,0.01,OVC,,0.03,165.0,WeatherDisplay:10.37,2013-07-05 11:57:00,
2013-07-05 08:03:00,75.3,71.5,30.07,West,275,5.0,5.0,88,0.01,OVC,,0.03,448.0,WeatherDisplay:10.37,2013-07-05 12:03:00,
2013-07-05 08:08:00,75.5,71.4,30.07,West,262,10.4,10.4,87,0.01,OVC,,0.03,454.0,WeatherDisplay:10.37,2013-07-05 12:08:00,
2013-07-05 08:13:00,75.7,71.6,30.07,WSW,258,13.0,13.0,87,0.01,OVC,,0.03,475.0,WeatherDisplay:10.37,2013-07-05 12:13:00,
2013-07-05 08:18:00,76.0,71.5,30.07,West,276,10.4,10.4,86,0.01,OVC,,0.03,506.0,WeatherDisplay:10.37,2013-07-05 12:18:00,
2013-07-05 08:23:00,76.2,71.7,30.07,SSW,210,15.0,15.0,86,0.01,OVC,,0.03,566.0,WeatherDisplay:10.37,2013-07-05 12:23:00,
2013-07-05 08:28:00,76.6,72.4,30.07,WNW,290,6.0,6.0,87,0.01,OVC,,0.03,628.0,WeatherDisplay:10.37,2013-07-05 12:28:00,
2013-07-05 08:34:00,76.9,71.7,30.07,West,269,10.4,10.4,84,0.00,OVC,,0.03,661.0,WeatherDisplay:10.37,2013-07-05 12:34:00,
2013-07-05 08:39:00,77.1,71.9,30.07,WSW,248,10.4,10.4,84,0.00,OVC,,0.03,698.0,WeatherDisplay:10.37,2013-07-05 12:39:00,
2013-07-05 08:44:00,77.3,72.1,30.07,WSW,247,10.0,10.0,84,0.00,OVC,,0.03,622.0,WeatherDisplay:10.37,2013-07-05 12:44:00,
2013-07-05 08:49:00,77.2,71.6,30.07,West,265,10.4,10.4,83,0.00,OVC,,0.03,608.0,WeatherDisplay:10.37,2013-07-05 12:49:00,
2013-07-05 08:54:00,77.1,71.9,30.07,West,273,8.0,8.0,84,0.00,OVC,,0.03,649.0,WeatherDisplay:10.37,2013-07-05 12:54:00,
2013-07-05 08:59:00,77.1,71.9,30.07,West,269,5.8,5.8,84,0.00,OVC,,0.03,633.0,WeatherDisplay:10.37,2013-07-05 12:59:00,
2013-07-05 09:05:00,77.5,72.3,30.07,West,277,11.5,11.5,84,0.00,OVC,,0.03,601.0,WeatherDisplay:10.37,2013-07-05 13:05:00,
2013-07-05 09:10:00,77.4,71.8,30.07,West,275,8.1,8.1,83,0.00,OVC,,0.03,207.0,WeatherDisplay:10.37,2013-07-05 13:10:00,
2013-07-05 09:15:00,77.4,71.8,30.07,West,268,10.4,10.4,83,0.00,OVC,,0.03,670.0,WeatherDisplay:10.37,2013-07-05 13:15:00,
2013-07-05 09:20:00,77.6,72.4,30.07,WSW,244,8.1,8.1,84,0.00,OVC,,0.03,763.0,WeatherDisplay:10.37,2013-07-05 13:20:00,
2013-07-05 09:25:00,77.8,72.2,30.07,West,276,9.0,9.0,83,0.00,OVC,,0.03,833.0,WeatherDisplay:10.37,2013-07-05 13:25:00,
2013-07-05 09:31:00,77.8,71.9,30.07,WNW,282,11.5,11.5,82,0.00,OVC,,0.03,178.0,WeatherDisplay:10.37,2013-07-05 13:31:00,
2013-07-05 09:36:00,77.9,72.3,30.07,WSW,251,6.9,6.9,83,0.00,OVC,,0.03,974.0,WeatherDisplay:10.37,2013-07-05 13:36:00,
2013-07-05 09:41:00,78.0,72.1,30.07,West,261,6.9,6.9,82,0.00,OVC,,0.03,888.0,WeatherDisplay:10.37,2013-07-05 13:41:00,
2013-07-05 09:46:00,78.1,72.2,30.07,West,263,7.0,7.0,82,0.00,OVC,,0.03,942.0,WeatherDisplay:10.37,2013-07-05 13:46:00,
2013-07-05 09:51:00,77.9,72.0,30.07,West,272,11.5,11.5,82,0.00,OVC,,0.03,942.0,WeatherDisplay:10.37,2013-07-05 13:51:00,
2013-07-05 09:56:00,77.9,72.0,30.07,West,264,9.2,9.2,82,0.00,OVC,,0.03,930.0,WeatherDisplay:10.37,2013-07-05 13:56:00,
2013-07-05 10:01:00,77.8,71.5,30.07,WSW,238,12.7,12.7,81,0.00,OVC,,0.03,886.0,WeatherDisplay:10.37,2013-07-05 14:01:00,
2013-07-05 10:06:00,77.8,72.2,30.06,WNW,285,3.5,3.5,83,0.00,OVC,,0.03,860.0,WeatherDisplay:10.37,2013-07-05 14:06:00,
2013-07-05 10:11:00,78.2,72.6,30.07,WSW,251,6.9,6.9,83,0.00,OVC,,0.03,895.0,WeatherDisplay:10.37,2013-07-05 14:11:00,
2013-07-05 10:16:00,78.6,72.3,30.07,WNW,289,10.4,10.4,81,0.00,OVC,,0.03,879.0,WeatherDisplay:10.37,2013-07-05 14:16:00,
2013-07-05 10:21:00,79.2,72.9,30.06,SSW,213,4.6,4.6,81,0.00,BKN,,0.03,995.0,WeatherDisplay:10.37,2013-07-05 14:21:00,
2013-07-05 10:27:00,79.0,72.3,30.06,West,272,8.1,8.1,80,0.00,CLR,,0.03,274.0,WeatherDisplay:10.37,2013-07-05 14:27:00,
2013-07-05 10:32:00,78.7,72.0,30.06,WNW,285,8.1,8.1,80,0.00,CLR,,0.03,947.0,WeatherDisplay:10.37,2013-07-05 14:32:00,
2013-07-05 10:37:00,78.7,72.7,30.06,West,272,10.4,10.4,82,0.00,CLR,,0.03,932.0,WeatherDisplay:10.37,2013-07-05 14:37:00,
2013-07-05 10:42:00,79.0,72.7,30.06,SSE,152,9.0,9.0,81,0.00,CLR,,0.03,984.0,WeatherDisplay:10.37,2013-07-05 14:42:00,
2013-07-05 10:47:00,79.3,72.6,30.05,West,271,5.8,5.8,80,0.00,CLR,,0.03,970.0,WeatherDisplay:10.37,2013-07-05 14:47:00,
2013-07-05 10:52:00,79.5,72.4,30.05,West,262,11.5,11.5,79,0.00,CLR,,0.03,977.0,WeatherDisplay:10.37,2013-07-05 14:52:00,
2013-07-05 10:57:00,79.4,73.1,30.05,WSW,255,9.2,9.2,81,0.00,CLR,,0.03,1011.0,WeatherDisplay:10.37,2013-07-05 14:57:00,
2013-07-05 11:02:00,79.4,72.3,30.06,East,101,9.2,9.2,79,0.00,CLR,,0.03,979.0,WeatherDisplay:10.37,2013-07-05 15:02:00,
2013-07-05 11:07:00,79.7,72.6,30.06,SW,234,5.8,5.8,79,0.00,CLR,,0.03,1041.0,WeatherDisplay:10.37,2013-07-05 15:07:00,
2013-07-05 11:12:00,80.2,72.7,30.05,SW,225,8.1,8.1,78,0.00,CLR,,0.03,1151.0,WeatherDisplay:10.37,2013-07-05 15:12:00,
2013-07-05 11:17:00,80.3,72.4,30.05,West,278,4.6,4.6,77,0.00,CLR,,0.03,276.0,WeatherDisplay:10.37,2013-07-05 15:17:00,
2013-07-05 11:22:00,80.0,72.5,30.06,West,277,11.5,11.5,78,0.00,CLR,,0.03,1011.0,WeatherDisplay:10.37,2013-07-05 15:22:00,
2013-07-05 11:27:00,80.0,72.5,30.05,WNW,290,11.5,11.5,78,0.00,CLR,,0.03,585.0,WeatherDisplay:10.37,2013-07-05 15:27:00,
2013-07-05 11:32:00,79.9,72.4,30.05,WSW,254,5.0,5.0,78,0.00,CLR,,0.03,1185.0,WeatherDisplay:10.37,2013-07-05 15:32:00,
2013-07-05 11:37:00,80.2,72.3,30.06,West,279,11.5,11.5,77,0.00,CLR,,0.03,1132.0,WeatherDisplay:10.37,2013-07-05 15:37:00,
2013-07-05 11:43:00,80.6,72.3,30.05,SW,216,4.6,4.6,76,0.00,CLR,,0.03,1071.0,WeatherDisplay:10.37,2013-07-05 15:43:00,
2013-07-05 11:48:00,81.1,73.2,30.05,South,170,3.5,3.5,77,0.00,CLR,,0.03,1060.0,WeatherDisplay:10.37,2013-07-05 15:48:00,
2013-07-05 11:53:00,81.5,72.4,30.05,SW,231,5.8,5.8,74,0.00,CLR,,0.03,1121.0,WeatherDisplay:10.37,2013-07-05 15:53:00,
2013-07-05 11:54:00,81.5,72.4,30.05,WSW,254,6.0,6.0,74,0.00,CLR,,0.03,1121.0,WeatherDisplay:10.37,2013-07-05 15:54:00,
2013-07-05 11:59:00,81.5,72.8,30.05,West,281,11.5,11.5,75,0.00,CLR,,0.03,802.0,WeatherDisplay:10.37,2013-07-05 15:59:00,
2013-07-05 12:04:00,81.5,72.0,30.05,WSW,252,12.0,12.0,73,0.00,CLR,,0.03,1042.0,WeatherDisplay:10.37,2013-07-05 16:04:00,
2013-07-05 12:09:00,81.7,73.4,30.05,WSW,258,9.2,9.2,76,0.00,CLR,,0.03,995.0,WeatherDisplay:10.37,2013-07-05 16:09:00,
2013-07-05 12:14:00,81.8,72.7,30.05,West,279,11.5,11.5,74,0.00,CLR,,0.03,1081.0,WeatherDisplay:10.37,2013-07-05 16:14:00,
2013-07-05 12:19:00,81.8,72.7,30.05,West,265,11.5,11.5,74,0.00,CLR,,0.03,1081.0,WeatherDisplay:10.37,2013-07-05 16:19:00,
2013-07-05 12:24:00,82.0,72.5,30.05,West,265,4.6,4.6,73,0.00,CLR,,0.03,995.0,WeatherDisplay:10.37,2013-07-05 16:24:00,
2013-07-05 12:29:00,81.9,72.8,30.05,WNW,298,8.0,8.0,74,0.00,CLR,,0.03,1178.0,WeatherDisplay:10.37,2013-07-05 16:29:00,
2013-07-05 12:34:00,82.1,73.4,30.04,SSW,202,8.1,8.1,75,0.00,CLR,,0.03,287.0,WeatherDisplay:10.37,2013-07-05 16:34:00,
2013-07-05 12:39:00,82.1,72.2,30.04,SW,233,3.5,3.5,72,0.00,CLR,,0.03,218.0,WeatherDisplay:10.37,2013-07-05 16:39:00,
2013-07-05 12:44:00,81.9,73.6,30.04,West,267,7.0,7.0,76,0.00,CLR,,0.03,1025.0,WeatherDisplay:10.37,2013-07-05 16:44:00,
2013-07-05 12:49:00,82.2,73.1,30.04,WSW,255,11.5,11.5,74,0.00,CLR,,0.03,1016.0,WeatherDisplay:10.37,2013-07-05 16:49:00,
2013-07-05 12:54:00,82.5,73.0,30.03,West,277,11.0,11.0,73,0.00,CLR,,0.03,1055.0,WeatherDisplay:10.37,2013-07-05 16:54:00,
2013-07-05 12:59:00,82.7,72.7,30.03,West,277,10.4,10.4,72,0.00,CLR,,0.03,1076.0,WeatherDisplay:10.37,2013-07-05 16:59:00,
2013-07-05 13:04:00,83.1,72.7,30.03,WNW,286,9.2,9.2,71,0.00,CLR,,0.03,1058.0,WeatherDisplay:10.37,2013-07-05 17:04:00,
2013-07-05 13:09:00,83.4,73.0,30.03,WSW,243,11.5,11.5,71,0.00,CLR,,0.03,1063.0,WeatherDisplay:10.37,2013-07-05 17:09:00,
2013-07-05 13:14:00,83.6,73.2,30.03,West,269,7.0,7.0,71,0.00,CLR,,0.03,995.0,WeatherDisplay:10.37,2013-07-05 17:14:00,
2013-07-05 13:19:00,83.8,72.5,30.03,South,189,6.0,6.0,69,0.00,CLR,,0.03,1007.0,WeatherDisplay:10.37,2013-07-05 17:19:00,
2013-07-05 13:24:00,83.7,72.9,30.03,West,259,8.1,8.1,70,0.00,CLR,,0.03,1014.0,WeatherDisplay:10.37,2013-07-05 17:24:00,
2013-07-05 13:29:00,83.6,71.0,30.03,WSW,257,9.2,9.2,66,0.00,CLR,,0.03,1028.0,WeatherDisplay:10.37,2013-07-05 17:29:00,
2013-07-05 13:34:00,83.8,72.5,30.03,South,174,11.5,11.5,69,0.00,CLR,,0.03,1099.0,WeatherDisplay:10.37,2013-07-05 17:34:00,
2013-07-05 13:39:00,84.1,72.4,30.03,SW,236,6.9,6.9,68,0.00,CLR,,0.03,1069.0,WeatherDisplay:10.37,2013-07-05 17:39:00,
2013-07-05 13:44:00,84.0,71.9,30.02,WSW,244,11.5,11.5,67,0.00,CLR,,0.03,174.0,WeatherDisplay:10.37,2013-07-05 17:44:00,
2013-07-05 13:49:00,83.8,72.5,30.02,WSW,255,8.1,8.1,69,0.00,CLR,,0.03,990.0,WeatherDisplay:10.37,2013-07-05 17:49:00,
2013-07-05 13:54:00,83.8,70.8,30.02,West,265,12.0,12.0,65,0.00,CLR,,0.03,1009.0,WeatherDisplay:10.37,2013-07-05 17:54:00,
2013-07-05 13:59:00,83.7,72.0,30.02,South,173,8.1,8.1,68,0.00,CLR,,0.03,1034.0,WeatherDisplay:10.37,2013-07-05 17:59:00,
2013-07-05 14:04:00,83.7,72.4,30.02,NW,312,8.1,8.1,69,0.00,CLR,,0.03,1030.0,WeatherDisplay:10.37,2013-07-05 18:04:00,
2013-07-05 14:09:00,84.0,72.3,30.02,West,275,5.8,5.8,68,0.00,CLR,,0.03,1005.0,WeatherDisplay:10.37,2013-07-05 18:09:00,
2013-07-05 14:14:00,84.3,72.6,30.01,WNW,287,10.4,10.4,68,0.00,CLR,,0.03,914.0,WeatherDisplay:10.37,2013-07-05 18:14:00,
2013-07-05 14:19:00,84.5,72.3,30.02,WSW,246,10.4,10.4,67,0.00,CLR,,0.03,972.0,WeatherDisplay:10.37,2013-07-05 18:19:00,
2013-07-05 14:20:00,84.6,72.4,30.02,WSW,254,8.1,8.1,67,0.00,CLR,,0.03,997.0,WeatherDisplay:10.37,2013-07-05 18:20:00,
2013-07-05 14:25:00,84.8,72.6,30.01,WSW,248,12.0,12.0,67,0.00,CLR,,0.03,958.0,WeatherDisplay:10.37,2013-07-05 18:25:00,
2013-07-05 14:30:00,84.6,71.5,30.01,West,275,12.0,12.0,65,0.00,CLR,,0.03,940.0,WeatherDisplay:10.37,2013-07-05 18:30:00,
2013-07-05 14:35:00,84.4,72.2,30.01,WNW,283,12.0,12.0,67,0.00,CLR,,0.03,939.0,WeatherDisplay:10.37,2013-07-05 18:35:00,
2013-07-05 14:40:00,84.3,72.1,30.00,WSW,257,8.1,8.1,67,0.00,CLR,,0.03,974.0,WeatherDisplay:10.37,2013-07-05 18:40:00,
2013-07-05 14:45:00,84.5,71.9,30.00,West,261,11.5,11.5,66,0.00,CLR,,0.03,905.0,WeatherDisplay:10.37,2013-07-05 18:45:00,
2013-07-05 14:50:00,84.7,72.1,30.00,WSW,250,8.1,8.1,66,0.00,CLR,,0.03,895.0,WeatherDisplay:10.37,2013-07-05 18:50:00,
2013-07-05 14:55:00,84.9,72.3,30.00,WSW,249,8.0,8.0,66,0.00,CLR,,0.03,881.0,WeatherDisplay:10.37,2013-07-05 18:55:00,
2013-07-05 15:00:00,85.0,70.5,30.00,West,269,7.0,7.0,62,0.00,CLR,,0.03,882.0,WeatherDisplay:10.37,2013-07-05 19:00:00,
2013-07-05 15:05:00,84.9,71.8,30.00,West,278,10.4,10.4,65,0.00,CLR,,0.03,860.0,WeatherDisplay:10.37,2013-07-05 19:05:00,
2013-07-05 15:10:00,85.0,71.0,30.00,WNW,284,15.0,15.0,63,0.00,CLR,,0.03,861.0,WeatherDisplay:10.37,2013-07-05 19:10:00,
2013-07-05 15:15:00,85.2,72.1,30.00,WNW,288,6.9,6.9,65,0.00,CLR,,0.03,856.0,WeatherDisplay:10.37,2013-07-05 19:15:00,
2013-07-05 15:20:00,85.3,71.3,30.00,WSW,240,15.0,15.0,63,0.00,CLR,,0.03,846.0,WeatherDisplay:10.37,2013-07-05 19:20:00,
2013-07-05 15:25:00,85.1,71.1,30.00,WNW,282,14.0,14.0,63,0.00,CLR,,0.03,821.0,WeatherDisplay:10.37,2013-07-05 19:25:00,
2013-07-05 15:30:00,85.2,71.6,29.99,West,263,5.8,5.8,64,0.00,CLR,,0.03,803.0,WeatherDisplay:10.37,2013-07-05 19:30:00,
2013-07-05 15:35:00,85.4,70.9,29.99,West,265,11.5,11.5,62,0.00,CLR,,0.03,796.0,WeatherDisplay:10.37,2013-07-05 19:35:00,
2013-07-05 15:40:00,85.4,70.4,30.00,NW,315,12.7,12.7,61,0.00,CLR,,0.03,780.0,WeatherDisplay:10.37,2013-07-05 19:40:00,
2013-07-05 15:45:00,85.3,70.3,30.00,West,280,14.0,14.0,61,0.00,CLR,,0.03,766.0,WeatherDisplay:10.37,2013-07-05 19:45:00,
2013-07-05 15:50:00,85.3,70.3,30.00,WSW,256,11.5,11.5,61,0.00,FEW,,0.03,761.0,WeatherDisplay:10.37,2013-07-05 19:50:00,
2013-07-05 15:53:00,85.3,70.8,30.00,West,273,5.0,5.0,62,0.00,FEW,,0.03,770.0,WeatherDisplay:10.37,2013-07-05 19:53:00,
2013-07-05 15:58:00,85.5,70.0,30.00,SW,230,10.0,10.0,60,0.00,FEW,,0.03,772.0,WeatherDisplay:10.37,2013-07-05 19:58:00,
2013-07-05 16:03:00,85.5,69.5,30.00,WNW,283,9.2,9.2,59,0.00,FEW,,0.03,752.0,WeatherDisplay:10.37,2013-07-05 20:03:00,
2013-07-05 16:08:00,85.6,70.1,30.00,WSW,258,16.1,16.1,60,0.00,FEW,,0.03,719.0,WeatherDisplay:10.37,2013-07-05 20:08:00,
2013-07-05 16:13:00,85.5,71.5,30.00,West,266,9.2,9.2,63,0.00,FEW,,0.03,693.0,WeatherDisplay:10.37,2013-07-05 20:13:00,
2013-07-05 16:18:00,85.6,70.1,30.00,WNW,298,4.6,4.6,60,0.00,SCT,,0.03,687.0,WeatherDisplay:10.37,2013-07-05 20:18:00,
2013-07-05 16:23:00,85.7,70.7,29.99,WNW,282,6.9,6.9,61,0.00,SCT,,0.03,682.0,WeatherDisplay:10.37,2013-07-05 20:23:00,
2013-07-05 16:28:00,85.6,70.1,29.99,SSW,201,11.5,11.5,60,0.00,SCT,,0.03,134.0,WeatherDisplay:10.37,2013-07-05 20:28:00,
2013-07-05 16:33:00,85.1,70.6,29.99,NW,311,9.2,9.2,62,0.00,SCT,,0.03,647.0,WeatherDisplay:10.37,2013-07-05 20:33:00,
2013-07-05 16:38:00,85.1,71.5,29.98,West,271,3.5,3.5,64,0.00,BKN,,0.03,629.0,WeatherDisplay:10.37,2013-07-05 20:38:00,
2013-07-05 16:43:00,85.4,71.4,29.98,SW,218,4.0,4.0,63,0.00,SCT,,0.03,613.0,WeatherDisplay:10.37,2013-07-05 20:43:00,
2013-07-05 16:48:00,85.6,70.6,29.98,West,281,8.1,8.1,61,0.00,SCT,,0.03,610.0,WeatherDisplay:10.37,2013-07-05 20:48:00,
2013-07-05 16:53:00,85.6,71.1,29.99,WSW,249,8.1,8.1,62,0.00,SCT,,0.03,601.0,WeatherDisplay:10.37,2013-07-05 20:53:00,
2013-07-05 16:58:00,85.5,70.5,29.99,WSW,252,10.4,10.4,61,0.00,SCT,,0.03,596.0,WeatherDisplay:10.37,2013-07-05 20:58:00,
2013-07-05 17:03:00,85.2,70.7,29.99,WSW,250,11.5,11.5,62,0.00,SCT,,0.03,585.0,WeatherDisplay:10.37,2013-07-05 21:03:00,
2013-07-05 17:08:00,85.1,71.1,29.99,West,273,10.4,10.4,63,0.00,SCT,,0.03,557.0,WeatherDisplay:10.37,2013-07-05 21:08:00,
2013-07-05 17:13:00,85.0,71.0,29.98,WSW,251,6.9,6.9,63,0.00,SCT,,0.03,541.0,WeatherDisplay:10.37,2013-07-05 21:13:00,
2013-07-05 17:18:00,84.8,70.8,29.98,WSW,242,6.9,6.9,63,0.00,BKN,,0.03,323.0,WeatherDisplay:10.37,2013-07-05 21:18:00,
2013-07-05 17:23:00,84.7,70.2,29.97,SW,226,5.8,5.8,62,0.00,BKN,,0.03,320.0,WeatherDisplay:10.37,2013-07-05 21:23:00,
2013-07-05 17:28:00,84.7,71.6,29.96,WSW,250,8.1,8.1,65,0.00,BKN,,0.03,619.0,WeatherDisplay:10.37,2013-07-05 21:28:00,
2013-07-05 17:34:00,84.7,71.2,29.97,WSW,249,5.8,5.8,64,0.00,BKN,,0.03,118.0,WeatherDisplay:10.37,2013-07-05 21:34:00,
2013-07-05 17:39:00,84.1,70.6,29.97,WNW,302,6.9,6.9,64,0.00,BKN,,0.03,83.0,WeatherDisplay:10.37,2013-07-05 21:39:00,
2013-07-05 17:41:00,83.8,70.8,29.96,WSW,245,5.8,5.8,65,0.00,BKN,,0.03,79.0,WeatherDisplay:10.37,2013-07-05 21:41:00,
2013-07-05 17:46:00,83.4,70.8,29.97,West,269,3.5,3.5,66,0.00,BKN,,0.03,63.0,WeatherDisplay:10.37,2013-07-05 21:46:00,
2013-07-05 17:51:00,82.6,70.5,29.98,SW,217,5.8,5.8,67,0.00,BKN,,0.03,54.0,WeatherDisplay:10.37,2013-07-05 21:51:00,
2013-07-05 17:56:00,82.0,70.8,29.98,West,267,3.5,3.5,69,0.00,OVC,,0.03,42.0,WeatherDisplay:10.37,2013-07-05 21:56:00,
2013-07-05 18:01:00,81.4,70.2,29.99,SW,231,4.0,4.0,69,0.00,OVC,,0.03,30.0,WeatherDisplay:10.37,2013-07-05 22:01:00,
2013-07-05 18:06:00,80.9,69.8,29.99,West,267,4.6,4.6,69,0.00,OVC,,0.03,26.0,WeatherDisplay:10.37,2013-07-05 22:06:00,
2013-07-05 18:11:00,80.4,70.1,29.98,West,264,4.0,4.0,71,0.00,OVC,,0.03,25.0,WeatherDisplay:10.37,2013-07-05 22:11:00,
2013-07-05 18:16:00,79.8,70.0,29.98,West,278,3.5,3.5,72,0.00,OVC,,0.03,23.0,WeatherDisplay:10.37,2013-07-05 22:16:00,
2013-07-05 18:21:00,79.0,70.0,29.98,WSW,246,4.6,4.6,74,0.00,OVC,,0.03,33.0,WeatherDisplay:10.37,2013-07-05 22:21:00,
2013-07-05 18:26:00,78.2,70.0,29.99,WSW,252,3.5,3.5,76,0.00,OVC,,0.03,40.0,WeatherDisplay:10.37,2013-07-05 22:26:00,
2013-07-05 18:31:00,77.5,70.1,29.99,WSW,252,2.3,2.3,78,0.00,OVC,,0.03,47.0,WeatherDisplay:10.37,2013-07-05 22:31:00,
2013-07-05 18:36:00,77.1,70.1,29.99,WSW,252,2.3,2.3,79,0.00,OVC,,0.03,54.0,WeatherDisplay:10.37,2013-07-05 22:36:00,
2013-07-05 18:41:00,76.9,70.3,29.98,WSW,252,1.2,1.2,80,0.00,OVC,,0.03,58.0,WeatherDisplay:10.37,2013-07-05 22:41:00,
2013-07-05 18:46:00,76.6,70.3,29.98,WSW,252,0.0,0.0,81,0.00,OVC,,0.03,56.0,WeatherDisplay:10.37,2013-07-05 22:46:00,
2013-07-05 18:52:00,76.5,70.9,29.97,WSW,252,0.0,0.0,83,0.00,OVC,,0.03,51.0,WeatherDisplay:10.37,2013-07-05 22:52:00,
2013-07-05 18:57:00,76.3,70.4,29.97,WSW,244,2.3,2.3,82,0.00,OVC,,0.03,81.0,WeatherDisplay:10.37,2013-07-05 22:57:00,
2013-07-05 19:02:00,76.0,70.5,29.97,WSW,244,3.5,3.5,83,0.00,BKN,,0.03,76.0,WeatherDisplay:10.37,2013-07-05 23:02:00,
2013-07-05 19:04:00,75.9,70.4,29.97,WSW,248,4.0,4.0,83,0.00,BKN,,0.03,44.0,WeatherDisplay:10.37,2013-07-05 23:04:00,
2013-07-05 19:09:00,75.5,70.3,29.98,WSW,254,3.5,3.5,84,0.01,RA,,0.04,30.0,WeatherDisplay:10.37,2013-07-05 23:09:00,
2013-07-05 19:14:00,75.0,70.2,29.98,West,273,5.0,5.0,85,0.02,RA,,0.05,21.0,WeatherDisplay:10.37,2013-07-05 23:14:00,
2013-07-05 19:20:00,74.5,70.0,29.98,West,273,1.2,1.2,86,0.02,RA,,0.05,14.0,WeatherDisplay:10.37,2013-07-05 23:20:00,
2013-07-05 19:25:00,74.2,70.1,29.98,West,273,3.5,3.5,87,0.02,CLR,,0.05,11.0,WeatherDisplay:10.37,2013-07-05 23:25:00,
2013-07-05 19:30:00,73.8,69.7,29.98,West,273,3.0,3.0,87,0.03,RA,,0.06,9.0,WeatherDisplay:10.37,2013-07-05 23:30:00,
2013-07-05 19:35:00,73.1,69.0,29.98,West,276,4.6,4.6,87,0.03,RA,,0.06,7.0,WeatherDisplay:10.37,2013-07-05 23:35:00,
2013-07-05 19:40:00,72.8,69.0,29.98,West,276,1.2,0.0,88,0.03,CLR,,0.06,5.0,WeatherDisplay:10.37,2013-07-05 23:40:00,
2013-07-05 19:45:00,72.5,69.1,29.98,SSW,195,3.5,3.5,89,0.04,RA,,0.07,0.0,WeatherDisplay:10.37,2013-07-05 23:45:00,
2013-07-05 19:50:00,72.3,69.2,29.98,WNW,284,1.2,1.2,90,0.04,RA,,0.07,0.0,WeatherDisplay:10.37,2013-07-05 23:50:00,
2013-07-05 19:55:00,72.0,68.9,29.99,West,271,6.9,6.9,90,0.04,CLR,,0.07,0.0,WeatherDisplay:10.37,2013-07-05 23:55:00,
2013-07-05 20:00:00,71.7,68.6,29.99,WSW,241,8.1,8.1,90,0.06,RA,,0.09,0.0,WeatherDisplay:10.37,2013-07-06 00:00:00,
2013-07-05 20:05:00,71.3,68.9,29.99,SW,225,6.9,6.9,92,0.11,RA,,0.15,0.0,WeatherDisplay:10.37,2013-07-06 00:05:00,
2013-07-05 20:10:00,71.0,68.6,29.99,West,269,3.5,3.5,92,0.15,RA,,0.18,5.0,WeatherDisplay:10.37,2013-07-06 00:10:00,
2013-07-05 20:15:00,70.8,68.7,30.00,SSW,208,3.5,3.5,93,0.14,RA,,0.18,0.0,WeatherDisplay:10.37,2013-07-06 00:15:00,
2013-07-05 20:20:00,70.7,68.6,29.99,NW,317,2.3,2.3,93,0.13,CLR,,0.18,11.0,WeatherDisplay:10.37,2013-07-06 00:20:00,
2013-07-05 20:25:00,70.7,68.6,29.99,SE,127,1.2,1.2,93,0.13,CLR,,0.18,12.0,WeatherDisplay:10.37,2013-07-06 00:25:00,
2013-07-05 20:31:00,70.7,68.9,29.99,NNE,17,1.2,1.2,94,0.13,CLR,,0.18,11.0,WeatherDisplay:10.37,2013-07-06 00:31:00,
2013-07-05 20:36:00,70.7,68.9,29.99,NNE,13,0.0,0.0,94,0.12,CLR,,0.18,9.0,WeatherDisplay:10.37,2013-07-06 00:36:00,
2013-07-05 20:41:00,70.6,68.8,29.99,NNE,13,0.0,0.0,94,0.12,CLR,,0.18,5.0,WeatherDisplay:10.37,2013-07-06 00:41:00,
2013-07-05 20:46:00,70.6,68.8,30.00,NNE,13,0.0,0.0,94,0.12,CLR,,0.18,0.0,WeatherDisplay:10.37,2013-07-06 00:46:00,
2013-07-05 20:51:00,70.6,68.8,30.00,NNE,13,0.0,0.0,94,0.11,CLR,,0.18,0.0,WeatherDisplay:10.37,2013-07-06 00:51:00,
2013-07-05 20:56:00,70.6,68.8,30.00,WSW,248,3.5,3.5,94,0.11,CLR,,0.18,0.0,WeatherDisplay:10.37,2013-07-06 00:56:00,
2013-07-05 21:01:00,70.5,68.7,30.00,WSW,248,1.0,1.0,94,0.11,CLR,,0.18,0.0,WeatherDisplay:10.37,2013-07-06 01:01:00,
2013-07-05 21:06:00,70.4,68.6,30.00,West,264,3.5,3.5,94,0.09,,,0.18,0.0,WeatherDisplay:10.37,2013-07-06 01:06:00,
2013-07-05 21:11:00,70.3,68.5,30.00,West,263,3.5,3.5,94,0.03,,,0.18,0.0,WeatherDisplay:10.37,2013-07-06 01:11:00,
2013-07-05 21:16:00,70.3,68.5,30.00,WNW,291,4.0,4.0,94,0.00,,,0.18,0.0,WeatherDisplay:10.37,2013-07-06 01:16:00,
2013-07-05 21:21:00,70.3,68.8,29.99,WNW,291,1.2,1.2,95,0.00,,,0.18,0.0,WeatherDisplay:10.37,2013-07-06 01:21:00,
2013-07-05 21:26:00,70.3,68.8,29.99,WNW,291,0.0,0.0,95,0.00,,,0.18,0.0,WeatherDisplay:10.37,2013-07-06 01:26:00,
2013-07-05 21:31:00,70.2,68.7,29.99,WNW,291,0.0,0.0,95,0.00,,,0.18,0.0,WeatherDisplay:10.37,2013-07-06 01:31:00,
2013-07-05 21:36:00,70.2,68.7,29.99,WNW,292,0.0,0.0,95,0.00,,,0.18,0.0,WeatherDisplay:10.37,2013-07-06 01:36:00,
2013-07-05 21:41:00,70.1,68.6,29.99,WNW,291,0.0,0.0,95,0.00,,,0.18,0.0,WeatherDisplay:10.37,2013-07-06 01:41:00,
2013-07-05 21:46:00,70.1,68.6,29.99,WNW,291,0.0,0.0,95,0.00,,,0.18,0.0,WeatherDisplay:10.37,2013-07-06 01:46:00,
2013-07-05 21:51:00,70.0,68.5,29.99,WNW,292,0.0,0.0,95,0.00,,,0.18,0.0,WeatherDisplay:10.37,2013-07-06 01:51:00,
2013-07-05 21:54:00,70.0,68.5,29.99,WNW,291,0.0,0.0,95,0.00,,,0.18,0.0,WeatherDisplay:10.37,2013-07-06 01:54:00,
2013-07-05 21:59:00,69.9,68.4,29.99,WNW,292,0.0,0.0,95,0.00,,,0.18,0.0,WeatherDisplay:10.37,2013-07-06 01:59:00,
2013-07-05 22:04:00,69.9,68.4,30.00,WNW,292,1.2,1.2,95,0.01,RA,,0.19,0.0,WeatherDisplay:10.37,2013-07-06 02:04:00,
2013-07-05 22:09:00,69.8,68.3,29.99,WNW,291,2.0,2.0,95,0.01,RA,,0.19,0.0,WeatherDisplay:10.37,2013-07-06 02:09:00,
2013-07-05 22:14:00,69.9,68.4,29.99,WNW,291,1.0,1.0,95,0.01,,,0.19,0.0,WeatherDisplay:10.37,2013-07-06 02:14:00,
2013-07-05 22:19:00,69.9,68.7,29.99,WNW,291,1.2,1.2,96,0.01,,,0.19,0.0,WeatherDisplay:10.37,2013-07-06 02:19:00,
2013-07-05 22:24:00,70.0,68.8,29.99,WNW,291,1.2,1.2,96,0.01,,,0.19,0.0,WeatherDisplay:10.37,2013-07-06 02:24:00,
2013-07-05 22:29:00,70.1,68.9,30.00,WNW,291,2.3,0.0,96,0.02,RA,,0.20,0.0,WeatherDisplay:10.37,2013-07-06 02:29:00,
2013-07-05 22:34:00,70.1,68.9,30.00,WNW,291,1.0,0.0,96,0.04,RA,,0.22,0.0,WeatherDisplay:10.37,2013-07-06 02:34:00,
2013-07-05 22:39:00,70.2,69.0,29.99,WNW,291,0.0,0.0,96,0.04,RA,,0.22,0.0,WeatherDisplay:10.37,2013-07-06 02:39:00,
2013-07-05 22:44:00,70.2,69.0,29.99,WNW,291,1.2,1.2,96,0.04,,,0.22,0.0,WeatherDisplay:10.37,2013-07-06 02:44:00,
2013-07-05 22:49:00,70.2,69.0,29.99,WNW,291,1.2,1.2,96,0.04,,,0.22,0.0,WeatherDisplay:10.37,2013-07-06 02:49:00,
2013-07-05 22:54:00,70.1,68.9,29.99,WNW,291,1.2,0.0,96,0.04,,,0.22,0.0,WeatherDisplay:10.37,2013-07-06 02:54:00,
2013-07-05 22:59:00,70.1,68.9,29.99,WNW,291,0.0,0.0,96,0.04,,,0.22,0.0,WeatherDisplay:10.37,2013-07-06 02:59:00,
2013-07-05 23:04:00,70.0,68.8,29.99,WNW,291,0.0,0.0,96,0.03,,,0.22,0.0,WeatherDisplay:10.37,2013-07-06 03:04:00,
2013-07-05 23:09:00,69.9,68.7,29.99,WNW,291,0.0,0.0,96,0.03,,,0.22,0.0,WeatherDisplay:10.37,2013-07-06 03:09:00,
2013-07-05 23:10:00,69.9,68.7,29.99,WNW,291,0.0,0.0,96,0.03,,,0.22,0.0,WeatherDisplay:10.37,2013-07-06 03:10:00,
2013-07-05 23:15:00,69.9,68.7,29.99,WNW,291,1.2,1.2,96,0.03,,,0.22,0.0,WeatherDisplay:10.37,2013-07-06 03:15:00,
2013-07-05 23:20:00,69.9,68.7,29.99,WNW,291,0.0,0.1,96,0.03,,,0.22,0.0,WeatherDisplay:10.37,2013-07-06 03:20:00,
2013-07-05 23:25:00,69.8,68.6,29.99,WNW,291,0.0,0.0,96,0.03,,,0.22,0.0,WeatherDisplay:10.37,2013-07-06 03:25:00,
2013-07-05 23:30:00,69.8,68.6,29.99,WNW,291,0.0,0.0,96,0.03,,,0.22,0.0,WeatherDisplay:10.37,2013-07-06 03:30:00,
2013-07-05 23:35:00,69.7,68.5,29.99,WNW,291,1.2,0.0,96,0.00,,,0.22,0.0,WeatherDisplay:10.37,2013-07-06 03:35:00,
2013-07-05 23:40:00,69.7,68.5,29.99,WNW,291,0.0,0.0,96,0.00,,,0.22,0.0,WeatherDisplay:10.37,2013-07-06 03:40:00,
2013-07-05 23:45:00,69.6,68.4,29.99,WNW,291,0.0,0.0,96,0.00,,,0.22,0.0,WeatherDisplay:10.37,2013-07-06 03:45:00,
2013-07-05 23:50:00,69.6,68.4,30.00,WNW,291,0.0,0.0,96,0.00,,,0.22,0.0,WeatherDisplay:10.37,2013-07-06 03:50:00,
2013-07-05 23:55:00,69.5,68.3,30.00,WNW,291,0.0,0.0,96,0.00,,,0.22,0.0,WeatherDisplay:10.37,2013-07-06 03:55:00,